sensor_id;sensor_type;location;lat;lon;timestamp;P1;durP1;ratioP1;P2;durP2;ratioP2
5880;SDS011;2966;52.598;10.928;2022-11-20T00:01:26;14.77;;;8.03;;
5880;SDS011;2966;52.598;10.928;2022-11-20T00:03:54;10.93;;;8.93;;
5880;SDS011;2966;52.598;10.928;2022-11-20T00:06:24;8.13;;;7.43;;
5880;SDS011;2966;52.598;10.928;2022-11-20T00:08:53;10.80;;;8.60;;
5880;SDS011;2966;52.598;10.928;2022-11-20T00:11:21;9.70;;;5.93;;
5880;SDS011;2966;52.598;10.928;2022-11-20T00:13:50;13.60;;;9.00;;
5880;SDS011;2966;52.598;10.928;2022-11-20T00:16:19;11.00;;;8.93;;
5880;SDS011;2966;52.598;10.928;2022-11-20T00:18:48;23.93;;;11.83;;
5880;SDS011;2966;52.598;10.928;2022-11-20T00:21:16;24.13;;;8.70;;
5880;SDS011;2966;52.598;10.928;2022-11-20T00:23:46;11.67;;;7.10;;
5880;SDS011;2966;52.598;10.928;2022-11-20T00:26:14;16.17;;;8.87;;
5880;SDS011;2966;52.598;10.928;2022-11-20T00:28:43;19.10;;;8.83;;
5880;SDS011;2966;52.598;10.928;2022-11-20T00:31:14;12.83;;;8.13;;
5880;SDS011;2966;52.598;10.928;2022-11-20T00:33:42;16.60;;;10.40;;
5880;SDS011;2966;52.598;10.928;2022-11-20T00:36:10;14.23;;;8.73;;
5880;SDS011;2966;52.598;10.928;2022-11-20T00:38:38;9.33;;;8.40;;
5880;SDS011;2966;52.598;10.928;2022-11-20T00:41:07;8.20;;;7.37;;
5880;SDS011;2966;52.598;10.928;2022-11-20T00:43:36;9.57;;;7.20;;
5880;SDS011;2966;52.598;10.928;2022-11-20T00:46:04;12.60;;;8.70;;
5880;SDS011;2966;52.598;10.928;2022-11-20T00:48:34;15.30;;;8.87;;
5880;SDS011;2966;52.598;10.928;2022-11-20T00:51:01;11.60;;;8.37;;
5880;SDS011;2966;52.598;10.928;2022-11-20T00:53:28;21.83;;;12.43;;
5880;SDS011;2966;52.598;10.928;2022-11-20T00:55:56;15.77;;;10.93;;
5880;SDS011;2966;52.598;10.928;2022-11-20T00:58:25;10.87;;;8.17;;
5880;SDS011;2966;52.598;10.928;2022-11-20T01:00:59;8.80;;;7.87;;
5880;SDS011;2966;52.598;10.928;2022-11-20T01:03:27;10.97;;;8.60;;
5880;SDS011;2966;52.598;10.928;2022-11-20T01:05:54;15.00;;;11.80;;
5880;SDS011;2966;52.598;10.928;2022-11-20T01:08:25;12.83;;;8.73;;
5880;SDS011;2966;52.598;10.928;2022-11-20T01:10:58;17.10;;;11.20;;
5880;SDS011;2966;52.598;10.928;2022-11-20T01:13:30;10.43;;;7.30;;
5880;SDS011;2966;52.598;10.928;2022-11-20T01:16:04;12.63;;;8.20;;
5880;SDS011;2966;52.598;10.928;2022-11-20T01:18:32;8.53;;;7.70;;
5880;SDS011;2966;52.598;10.928;2022-11-20T01:21:02;14.67;;;8.10;;
5880;SDS011;2966;52.598;10.928;2022-11-20T01:23:31;12.03;;;8.27;;
5880;SDS011;2966;52.598;10.928;2022-11-20T01:25:59;17.93;;;7.30;;
5880;SDS011;2966;52.598;10.928;2022-11-20T01:28:27;8.60;;;7.63;;
5880;SDS011;2966;52.598;10.928;2022-11-20T01:30:56;9.50;;;6.37;;
5880;SDS011;2966;52.598;10.928;2022-11-20T01:33:24;12.80;;;8.77;;
5880;SDS011;2966;52.598;10.928;2022-11-20T01:35:51;14.40;;;9.07;;
5880;SDS011;2966;52.598;10.928;2022-11-20T01:38:19;9.37;;;6.73;;
5880;SDS011;2966;52.598;10.928;2022-11-20T01:40:53;11.23;;;8.80;;
5880;SDS011;2966;52.598;10.928;2022-11-20T01:43:20;10.20;;;6.87;;
5880;SDS011;2966;52.598;10.928;2022-11-20T01:46:00;6.73;;;5.93;;
5880;SDS011;2966;52.598;10.928;2022-11-20T01:48:48;10.27;;;6.80;;
5880;SDS011;2966;52.598;10.928;2022-11-20T01:51:19;11.93;;;7.47;;
5880;SDS011;2966;52.598;10.928;2022-11-20T01:53:50;11.33;;;9.40;;
5880;SDS011;2966;52.598;10.928;2022-11-20T01:56:20;9.77;;;8.80;;
5880;SDS011;2966;52.598;10.928;2022-11-20T01:58:48;12.77;;;7.90;;
5880;SDS011;2966;52.598;10.928;2022-11-20T02:01:19;10.97;;;8.27;;
5880;SDS011;2966;52.598;10.928;2022-11-20T02:03:46;15.43;;;10.17;;
5880;SDS011;2966;52.598;10.928;2022-11-20T02:06:16;11.53;;;9.23;;
5880;SDS011;2966;52.598;10.928;2022-11-20T02:08:46;18.60;;;10.27;;
5880;SDS011;2966;52.598;10.928;2022-11-20T02:11:13;16.23;;;11.43;;
5880;SDS011;2966;52.598;10.928;2022-11-20T02:13:40;10.23;;;8.80;;
5880;SDS011;2966;52.598;10.928;2022-11-20T02:16:13;15.27;;;9.80;;
5880;SDS011;2966;52.598;10.928;2022-11-20T02:18:47;18.33;;;10.40;;
5880;SDS011;2966;52.598;10.928;2022-11-20T02:21:26;18.67;;;10.47;;
5880;SDS011;2966;52.598;10.928;2022-11-20T02:23:59;10.97;;;9.80;;
5880;SDS011;2966;52.598;10.928;2022-11-20T02:26:27;20.33;;;11.90;;
5880;SDS011;2966;52.598;10.928;2022-11-20T02:28:57;11.93;;;10.00;;
5880;SDS011;2966;52.598;10.928;2022-11-20T02:31:25;18.90;;;15.33;;
5880;SDS011;2966;52.598;10.928;2022-11-20T02:33:56;10.93;;;9.30;;
5880;SDS011;2966;52.598;10.928;2022-11-20T02:36:23;10.97;;;9.00;;
5880;SDS011;2966;52.598;10.928;2022-11-20T02:38:52;15.10;;;9.50;;
5880;SDS011;2966;52.598;10.928;2022-11-20T02:41:22;17.53;;;9.70;;
5880;SDS011;2966;52.598;10.928;2022-11-20T02:43:57;20.07;;;12.70;;
5880;SDS011;2966;52.598;10.928;2022-11-20T02:46:24;13.00;;;9.83;;
5880;SDS011;2966;52.598;10.928;2022-11-20T02:48:51;16.70;;;12.40;;
5880;SDS011;2966;52.598;10.928;2022-11-20T02:51:17;13.23;;;9.47;;
5880;SDS011;2966;52.598;10.928;2022-11-20T02:53:44;13.00;;;10.10;;
5880;SDS011;2966;52.598;10.928;2022-11-20T02:56:11;17.10;;;12.90;;
5880;SDS011;2966;52.598;10.928;2022-11-20T02:58:39;20.83;;;11.03;;
5880;SDS011;2966;52.598;10.928;2022-11-20T03:01:06;13.80;;;8.13;;
5880;SDS011;2966;52.598;10.928;2022-11-20T03:03:33;14.43;;;10.97;;
5880;SDS011;2966;52.598;10.928;2022-11-20T03:06:00;13.73;;;9.90;;
5880;SDS011;2966;52.598;10.928;2022-11-20T03:08:27;10.83;;;9.67;;
5880;SDS011;2966;52.598;10.928;2022-11-20T03:10:54;9.90;;;7.63;;
5880;SDS011;2966;52.598;10.928;2022-11-20T03:13:21;14.57;;;8.40;;
5880;SDS011;2966;52.598;10.928;2022-11-20T03:15:49;16.53;;;10.67;;
5880;SDS011;2966;52.598;10.928;2022-11-20T03:18:16;17.77;;;8.67;;
5880;SDS011;2966;52.598;10.928;2022-11-20T03:20:42;12.10;;;7.60;;
5880;SDS011;2966;52.598;10.928;2022-11-20T03:23:09;14.33;;;7.80;;
5880;SDS011;2966;52.598;10.928;2022-11-20T03:25:36;8.47;;;7.60;;
5880;SDS011;2966;52.598;10.928;2022-11-20T03:28:03;14.03;;;10.00;;
5880;SDS011;2966;52.598;10.928;2022-11-20T03:30:30;17.23;;;9.07;;
5880;SDS011;2966;52.598;10.928;2022-11-20T03:32:58;10.33;;;8.30;;
5880;SDS011;2966;52.598;10.928;2022-11-20T03:35:25;13.97;;;7.23;;
5880;SDS011;2966;52.598;10.928;2022-11-20T03:37:52;11.10;;;8.30;;
5880;SDS011;2966;52.598;10.928;2022-11-20T03:40:19;6.93;;;6.23;;
5880;SDS011;2966;52.598;10.928;2022-11-20T03:42:46;13.27;;;8.57;;
5880;SDS011;2966;52.598;10.928;2022-11-20T03:45:13;14.67;;;8.80;;
5880;SDS011;2966;52.598;10.928;2022-11-20T03:47:40;10.90;;;5.63;;
5880;SDS011;2966;52.598;10.928;2022-11-20T03:50:09;10.73;;;6.97;;
5880;SDS011;2966;52.598;10.928;2022-11-20T03:52:38;16.07;;;8.90;;
5880;SDS011;2966;52.598;10.928;2022-11-20T03:55:06;12.27;;;8.90;;
5880;SDS011;2966;52.598;10.928;2022-11-20T03:57:33;14.30;;;11.73;;
5880;SDS011;2966;52.598;10.928;2022-11-20T04:00:00;9.40;;;8.37;;
5880;SDS011;2966;52.598;10.928;2022-11-20T04:02:27;14.20;;;8.40;;
5880;SDS011;2966;52.598;10.928;2022-11-20T04:04:54;11.80;;;8.40;;
5880;SDS011;2966;52.598;10.928;2022-11-20T04:07:22;17.87;;;9.70;;
5880;SDS011;2966;52.598;10.928;2022-11-20T04:09:49;14.07;;;10.30;;
5880;SDS011;2966;52.598;10.928;2022-11-20T04:12:16;9.10;;;7.07;;
5880;SDS011;2966;52.598;10.928;2022-11-20T04:14:43;8.97;;;6.37;;
5880;SDS011;2966;52.598;10.928;2022-11-20T04:17:09;13.67;;;8.53;;
5880;SDS011;2966;52.598;10.928;2022-11-20T04:19:36;13.73;;;8.90;;
5880;SDS011;2966;52.598;10.928;2022-11-20T04:22:03;10.13;;;6.77;;
5880;SDS011;2966;52.598;10.928;2022-11-20T04:24:31;6.67;;;5.40;;
5880;SDS011;2966;52.598;10.928;2022-11-20T04:26:58;9.57;;;7.47;;
5880;SDS011;2966;52.598;10.928;2022-11-20T04:29:25;12.97;;;8.73;;
5880;SDS011;2966;52.598;10.928;2022-11-20T04:31:52;13.40;;;8.83;;
5880;SDS011;2966;52.598;10.928;2022-11-20T04:34:18;11.80;;;8.20;;
5880;SDS011;2966;52.598;10.928;2022-11-20T04:36:45;12.40;;;9.57;;
5880;SDS011;2966;52.598;10.928;2022-11-20T04:39:12;12.03;;;8.30;;
5880;SDS011;2966;52.598;10.928;2022-11-20T04:41:42;14.60;;;9.57;;
5880;SDS011;2966;52.598;10.928;2022-11-20T04:44:09;11.93;;;9.43;;
5880;SDS011;2966;52.598;10.928;2022-11-20T04:46:37;7.10;;;6.50;;
5880;SDS011;2966;52.598;10.928;2022-11-20T04:49:06;10.30;;;8.00;;
5880;SDS011;2966;52.598;10.928;2022-11-20T04:51:33;11.60;;;7.20;;
5880;SDS011;2966;52.598;10.928;2022-11-20T04:54:00;14.27;;;10.27;;
5880;SDS011;2966;52.598;10.928;2022-11-20T04:56:27;16.47;;;10.37;;
5880;SDS011;2966;52.598;10.928;2022-11-20T04:58:56;13.40;;;8.93;;
5880;SDS011;2966;52.598;10.928;2022-11-20T05:01:27;21.07;;;10.40;;
5880;SDS011;2966;52.598;10.928;2022-11-20T05:03:54;13.10;;;8.77;;
5880;SDS011;2966;52.598;10.928;2022-11-20T05:06:22;15.87;;;11.13;;
5880;SDS011;2966;52.598;10.928;2022-11-20T05:08:49;14.83;;;9.13;;
5880;SDS011;2966;52.598;10.928;2022-11-20T05:11:17;13.37;;;9.07;;
5880;SDS011;2966;52.598;10.928;2022-11-20T05:13:44;14.33;;;10.03;;
5880;SDS011;2966;52.598;10.928;2022-11-20T05:16:13;9.87;;;8.57;;
5880;SDS011;2966;52.598;10.928;2022-11-20T05:18:41;11.27;;;7.43;;
5880;SDS011;2966;52.598;10.928;2022-11-20T05:21:10;15.70;;;9.47;;
5880;SDS011;2966;52.598;10.928;2022-11-20T05:23:38;12.17;;;9.00;;
5880;SDS011;2966;52.598;10.928;2022-11-20T05:26:06;15.13;;;11.30;;
5880;SDS011;2966;52.598;10.928;2022-11-20T05:28:38;10.97;;;8.20;;
5880;SDS011;2966;52.598;10.928;2022-11-20T05:31:05;14.70;;;8.97;;
5880;SDS011;2966;52.598;10.928;2022-11-20T05:33:34;19.33;;;11.03;;
5880;SDS011;2966;52.598;10.928;2022-11-20T05:36:01;11.83;;;8.90;;
5880;SDS011;2966;52.598;10.928;2022-11-20T05:38:29;13.53;;;8.00;;
5880;SDS011;2966;52.598;10.928;2022-11-20T05:41:02;13.87;;;8.33;;
5880;SDS011;2966;52.598;10.928;2022-11-20T05:43:31;15.10;;;9.97;;
5880;SDS011;2966;52.598;10.928;2022-11-20T05:45:59;13.40;;;7.90;;
5880;SDS011;2966;52.598;10.928;2022-11-20T05:48:26;14.60;;;10.10;;
5880;SDS011;2966;52.598;10.928;2022-11-20T05:50:55;15.40;;;10.30;;
5880;SDS011;2966;52.598;10.928;2022-11-20T05:53:23;11.07;;;6.50;;
5880;SDS011;2966;52.598;10.928;2022-11-20T05:55:55;9.23;;;7.13;;
5880;SDS011;2966;52.598;10.928;2022-11-20T05:58:23;11.13;;;8.50;;
5880;SDS011;2966;52.598;10.928;2022-11-20T06:00:50;9.43;;;6.97;;
5880;SDS011;2966;52.598;10.928;2022-11-20T06:03:17;11.97;;;7.37;;
5880;SDS011;2966;52.598;10.928;2022-11-20T06:05:44;13.53;;;8.10;;
5880;SDS011;2966;52.598;10.928;2022-11-20T06:08:12;13.80;;;9.63;;
5880;SDS011;2966;52.598;10.928;2022-11-20T06:10:39;9.50;;;6.63;;
5880;SDS011;2966;52.598;10.928;2022-11-20T06:13:06;13.50;;;8.30;;
5880;SDS011;2966;52.598;10.928;2022-11-20T06:15:33;10.70;;;7.47;;
5880;SDS011;2966;52.598;10.928;2022-11-20T06:17:59;9.77;;;6.63;;
5880;SDS011;2966;52.598;10.928;2022-11-20T06:20:26;14.77;;;10.10;;
5880;SDS011;2966;52.598;10.928;2022-11-20T06:22:53;8.73;;;6.93;;
5880;SDS011;2966;52.598;10.928;2022-11-20T06:25:21;11.03;;;7.83;;
5880;SDS011;2966;52.598;10.928;2022-11-20T06:27:48;9.33;;;7.43;;
5880;SDS011;2966;52.598;10.928;2022-11-20T06:30:15;10.97;;;8.43;;
5880;SDS011;2966;52.598;10.928;2022-11-20T06:32:42;15.90;;;9.23;;
5880;SDS011;2966;52.598;10.928;2022-11-20T06:35:09;12.37;;;8.40;;
5880;SDS011;2966;52.598;10.928;2022-11-20T06:37:36;21.27;;;9.17;;
5880;SDS011;2966;52.598;10.928;2022-11-20T06:40:03;9.40;;;6.83;;
5880;SDS011;2966;52.598;10.928;2022-11-20T06:42:32;19.87;;;11.30;;
5880;SDS011;2966;52.598;10.928;2022-11-20T06:44:59;14.20;;;9.50;;
5880;SDS011;2966;52.598;10.928;2022-11-20T06:47:26;11.87;;;8.57;;
5880;SDS011;2966;52.598;10.928;2022-11-20T06:49:53;22.50;;;9.43;;
5880;SDS011;2966;52.598;10.928;2022-11-20T06:52:20;22.03;;;9.80;;
5880;SDS011;2966;52.598;10.928;2022-11-20T06:54:47;9.53;;;7.57;;
5880;SDS011;2966;52.598;10.928;2022-11-20T06:57:13;13.67;;;10.70;;
5880;SDS011;2966;52.598;10.928;2022-11-20T06:59:42;20.27;;;9.27;;
5880;SDS011;2966;52.598;10.928;2022-11-20T07:02:09;18.43;;;10.47;;
5880;SDS011;2966;52.598;10.928;2022-11-20T07:04:36;13.13;;;8.20;;
5880;SDS011;2966;52.598;10.928;2022-11-20T07:07:03;17.10;;;12.10;;
5880;SDS011;2966;52.598;10.928;2022-11-20T07:09:31;9.80;;;8.90;;
5880;SDS011;2966;52.598;10.928;2022-11-20T07:11:58;14.13;;;9.07;;
5880;SDS011;2966;52.598;10.928;2022-11-20T07:14:25;27.07;;;11.23;;
5880;SDS011;2966;52.598;10.928;2022-11-20T07:16:53;16.17;;;7.20;;
5880;SDS011;2966;52.598;10.928;2022-11-20T07:19:20;14.83;;;8.17;;
5880;SDS011;2966;52.598;10.928;2022-11-20T07:21:47;14.60;;;10.47;;
5880;SDS011;2966;52.598;10.928;2022-11-20T07:24:14;15.13;;;9.03;;
5880;SDS011;2966;52.598;10.928;2022-11-20T07:26:41;12.33;;;9.53;;
5880;SDS011;2966;52.598;10.928;2022-11-20T07:29:08;16.20;;;10.33;;
5880;SDS011;2966;52.598;10.928;2022-11-20T07:31:35;11.40;;;8.17;;
5880;SDS011;2966;52.598;10.928;2022-11-20T07:34:03;12.17;;;8.50;;
5880;SDS011;2966;52.598;10.928;2022-11-20T07:36:30;11.27;;;9.50;;
5880;SDS011;2966;52.598;10.928;2022-11-20T07:38:56;20.23;;;9.00;;
5880;SDS011;2966;52.598;10.928;2022-11-20T07:41:23;13.90;;;9.33;;
5880;SDS011;2966;52.598;10.928;2022-11-20T07:43:50;16.33;;;11.40;;
5880;SDS011;2966;52.598;10.928;2022-11-20T07:46:17;20.07;;;12.43;;
5880;SDS011;2966;52.598;10.928;2022-11-20T07:48:44;16.20;;;10.67;;
5880;SDS011;2966;52.598;10.928;2022-11-20T07:51:12;14.80;;;9.93;;
5880;SDS011;2966;52.598;10.928;2022-11-20T07:53:39;21.50;;;14.13;;
5880;SDS011;2966;52.598;10.928;2022-11-20T07:56:06;36.37;;;19.53;;
5880;SDS011;2966;52.598;10.928;2022-11-20T07:58:33;33.87;;;20.70;;
5880;SDS011;2966;52.598;10.928;2022-11-20T08:01:02;30.23;;;17.03;;
5880;SDS011;2966;52.598;10.928;2022-11-20T08:03:29;23.03;;;11.90;;
5880;SDS011;2966;52.598;10.928;2022-11-20T08:05:58;21.87;;;11.43;;
5880;SDS011;2966;52.598;10.928;2022-11-20T08:08:27;22.93;;;13.67;;
5880;SDS011;2966;52.598;10.928;2022-11-20T08:10:54;21.80;;;12.30;;
5880;SDS011;2966;52.598;10.928;2022-11-20T08:13:43;12.00;;;8.10;;
5880;SDS011;2966;52.598;10.928;2022-11-20T08:16:27;17.30;;;10.30;;
5880;SDS011;2966;52.598;10.928;2022-11-20T08:18:54;18.93;;;10.80;;
5880;SDS011;2966;52.598;10.928;2022-11-20T08:21:21;11.37;;;8.60;;
5880;SDS011;2966;52.598;10.928;2022-11-20T08:23:50;15.30;;;10.00;;
5880;SDS011;2966;52.598;10.928;2022-11-20T08:26:17;11.83;;;8.20;;
5880;SDS011;2966;52.598;10.928;2022-11-20T08:28:43;11.67;;;7.63;;
5880;SDS011;2966;52.598;10.928;2022-11-20T08:31:10;12.70;;;7.97;;
5880;SDS011;2966;52.598;10.928;2022-11-20T08:33:37;16.37;;;9.47;;
5880;SDS011;2966;52.598;10.928;2022-11-20T08:36:05;11.40;;;9.33;;
5880;SDS011;2966;52.598;10.928;2022-11-20T08:38:33;18.10;;;10.63;;
5880;SDS011;2966;52.598;10.928;2022-11-20T08:41:02;13.20;;;8.63;;
5880;SDS011;2966;52.598;10.928;2022-11-20T08:43:47;9.83;;;6.57;;
5880;SDS011;2966;52.598;10.928;2022-11-20T08:46:14;9.23;;;7.27;;
5880;SDS011;2966;52.598;10.928;2022-11-20T08:48:41;16.23;;;9.50;;
5880;SDS011;2966;52.598;10.928;2022-11-20T08:51:08;13.90;;;9.87;;
5880;SDS011;2966;52.598;10.928;2022-11-20T08:53:35;17.67;;;8.83;;
5880;SDS011;2966;52.598;10.928;2022-11-20T08:56:04;8.73;;;6.80;;
5880;SDS011;2966;52.598;10.928;2022-11-20T08:58:31;10.80;;;8.07;;
5880;SDS011;2966;52.598;10.928;2022-11-20T09:00:58;15.10;;;8.20;;
5880;SDS011;2966;52.598;10.928;2022-11-20T09:03:24;9.93;;;7.33;;
5880;SDS011;2966;52.598;10.928;2022-11-20T09:05:56;9.40;;;7.80;;
5880;SDS011;2966;52.598;10.928;2022-11-20T09:08:23;15.60;;;6.90;;
5880;SDS011;2966;52.598;10.928;2022-11-20T09:10:51;6.67;;;5.27;;
5880;SDS011;2966;52.598;10.928;2022-11-20T09:13:19;8.53;;;5.93;;
5880;SDS011;2966;52.598;10.928;2022-11-20T09:15:46;9.77;;;7.40;;
5880;SDS011;2966;52.598;10.928;2022-11-20T09:18:13;13.10;;;8.63;;
5880;SDS011;2966;52.598;10.928;2022-11-20T09:20:40;10.33;;;6.33;;
5880;SDS011;2966;52.598;10.928;2022-11-20T09:23:06;6.63;;;5.40;;
5880;SDS011;2966;52.598;10.928;2022-11-20T09:25:33;8.93;;;5.83;;
5880;SDS011;2966;52.598;10.928;2022-11-20T09:28:00;14.13;;;8.93;;
5880;SDS011;2966;52.598;10.928;2022-11-20T09:30:28;11.27;;;9.57;;
5880;SDS011;2966;52.598;10.928;2022-11-20T09:32:55;11.40;;;6.63;;
5880;SDS011;2966;52.598;10.928;2022-11-20T09:35:22;5.67;;;5.03;;
5880;SDS011;2966;52.598;10.928;2022-11-20T09:37:53;5.47;;;5.03;;
5880;SDS011;2966;52.598;10.928;2022-11-20T09:40:20;7.90;;;4.07;;
5880;SDS011;2966;52.598;10.928;2022-11-20T09:42:50;11.87;;;6.13;;
5880;SDS011;2966;52.598;10.928;2022-11-20T09:45:23;23.27;;;7.30;;
5880;SDS011;2966;52.598;10.928;2022-11-20T09:48:05;32.33;;;6.67;;
5880;SDS011;2966;52.598;10.928;2022-11-20T09:50:45;7.63;;;5.10;;
5880;SDS011;2966;52.598;10.928;2022-11-20T09:53:18;7.30;;;5.77;;
5880;SDS011;2966;52.598;10.928;2022-11-20T09:55:53;7.17;;;4.60;;
5880;SDS011;2966;52.598;10.928;2022-11-20T09:58:24;11.23;;;7.97;;
5880;SDS011;2966;52.598;10.928;2022-11-20T10:00:57;6.87;;;5.73;;
5880;SDS011;2966;52.598;10.928;2022-11-20T10:03:33;10.07;;;6.60;;
5880;SDS011;2966;52.598;10.928;2022-11-20T10:06:05;10.07;;;6.30;;
5880;SDS011;2966;52.598;10.928;2022-11-20T10:08:39;6.20;;;4.70;;
5880;SDS011;2966;52.598;10.928;2022-11-20T10:11:11;7.83;;;4.80;;
5880;SDS011;2966;52.598;10.928;2022-11-20T10:13:46;6.80;;;4.90;;
5880;SDS011;2966;52.598;10.928;2022-11-20T10:16:20;6.70;;;5.13;;
5880;SDS011;2966;52.598;10.928;2022-11-20T10:19:04;6.97;;;5.63;;
5880;SDS011;2966;52.598;10.928;2022-11-20T10:21:41;7.23;;;6.53;;
5880;SDS011;2966;52.598;10.928;2022-11-20T10:24:43;5.13;;;4.30;;
5880;SDS011;2966;52.598;10.928;2022-11-20T10:27:22;14.67;;;6.87;;
5880;SDS011;2966;52.598;10.928;2022-11-20T10:30:08;10.53;;;5.33;;
5880;SDS011;2966;52.598;10.928;2022-11-20T10:32:37;6.67;;;4.77;;
5880;SDS011;2966;52.598;10.928;2022-11-20T10:35:14;8.90;;;6.27;;
5880;SDS011;2966;52.598;10.928;2022-11-20T10:37:48;7.00;;;5.53;;
5880;SDS011;2966;52.598;10.928;2022-11-20T10:40:19;6.87;;;3.63;;
5880;SDS011;2966;52.598;10.928;2022-11-20T10:42:50;7.40;;;4.60;;
5880;SDS011;2966;52.598;10.928;2022-11-20T10:45:26;5.80;;;5.20;;
5880;SDS011;2966;52.598;10.928;2022-11-20T10:48:14;3.87;;;3.37;;
5880;SDS011;2966;52.598;10.928;2022-11-20T10:50:59;8.97;;;5.83;;
5880;SDS011;2966;52.598;10.928;2022-11-20T10:53:40;6.27;;;4.37;;
5880;SDS011;2966;52.598;10.928;2022-11-20T10:56:16;9.47;;;6.37;;
5880;SDS011;2966;52.598;10.928;2022-11-20T10:58:48;6.57;;;5.20;;
5880;SDS011;2966;52.598;10.928;2022-11-20T11:01:26;7.73;;;6.07;;
5880;SDS011;2966;52.598;10.928;2022-11-20T11:03:53;15.47;;;6.57;;
5880;SDS011;2966;52.598;10.928;2022-11-20T11:06:23;8.20;;;6.30;;
5880;SDS011;2966;52.598;10.928;2022-11-20T11:08:56;7.40;;;4.93;;
5880;SDS011;2966;52.598;10.928;2022-11-20T11:11:29;12.70;;;7.20;;
5880;SDS011;2966;52.598;10.928;2022-11-20T11:14:04;10.20;;;5.93;;
5880;SDS011;2966;52.598;10.928;2022-11-20T11:16:32;6.03;;;5.13;;
5880;SDS011;2966;52.598;10.928;2022-11-20T11:19:05;7.10;;;5.33;;
5880;SDS011;2966;52.598;10.928;2022-11-20T11:21:34;7.80;;;5.70;;
5880;SDS011;2966;52.598;10.928;2022-11-20T11:24:14;6.67;;;5.97;;
5880;SDS011;2966;52.598;10.928;2022-11-20T11:26:50;6.50;;;5.13;;
5880;SDS011;2966;52.598;10.928;2022-11-20T11:29:18;9.23;;;4.47;;
5880;SDS011;2966;52.598;10.928;2022-11-20T11:31:45;7.63;;;4.73;;
5880;SDS011;2966;52.598;10.928;2022-11-20T11:34:12;6.37;;;5.33;;
5880;SDS011;2966;52.598;10.928;2022-11-20T11:36:47;11.33;;;7.90;;
5880;SDS011;2966;52.598;10.928;2022-11-20T11:39:19;10.90;;;7.50;;
5880;SDS011;2966;52.598;10.928;2022-11-20T11:41:47;6.90;;;4.77;;
5880;SDS011;2966;52.598;10.928;2022-11-20T11:44:15;5.87;;;5.30;;
5880;SDS011;2966;52.598;10.928;2022-11-20T11:47:02;14.53;;;6.73;;
5880;SDS011;2966;52.598;10.928;2022-11-20T11:49:31;9.83;;;5.67;;
5880;SDS011;2966;52.598;10.928;2022-11-20T11:52:02;9.83;;;7.10;;
5880;SDS011;2966;52.598;10.928;2022-11-20T11:54:36;6.67;;;4.90;;
5880;SDS011;2966;52.598;10.928;2022-11-20T11:57:10;9.20;;;6.30;;
5880;SDS011;2966;52.598;10.928;2022-11-20T11:59:51;7.80;;;5.13;;
5880;SDS011;2966;52.598;10.928;2022-11-20T12:02:29;6.80;;;5.10;;
5880;SDS011;2966;52.598;10.928;2022-11-20T12:05:03;5.90;;;4.87;;
5880;SDS011;2966;52.598;10.928;2022-11-20T12:07:41;8.00;;;6.13;;
5880;SDS011;2966;52.598;10.928;2022-11-20T12:10:13;4.80;;;4.30;;
5880;SDS011;2966;52.598;10.928;2022-11-20T12:12:44;5.57;;;5.07;;
5880;SDS011;2966;52.598;10.928;2022-11-20T12:15:16;10.70;;;4.10;;
5880;SDS011;2966;52.598;10.928;2022-11-20T12:17:52;7.77;;;5.70;;
5880;SDS011;2966;52.598;10.928;2022-11-20T12:20:19;6.43;;;5.50;;
5880;SDS011;2966;52.598;10.928;2022-11-20T12:22:55;9.77;;;6.37;;
5880;SDS011;2966;52.598;10.928;2022-11-20T12:25:28;7.63;;;5.77;;
5880;SDS011;2966;52.598;10.928;2022-11-20T12:28:09;8.17;;;6.57;;
5880;SDS011;2966;52.598;10.928;2022-11-20T12:30:51;11.10;;;5.97;;
5880;SDS011;2966;52.598;10.928;2022-11-20T12:36:32;5.57;;;4.67;;
5880;SDS011;2966;52.598;10.928;2022-11-20T12:39:19;6.00;;;5.50;;
5880;SDS011;2966;52.598;10.928;2022-11-20T12:42:00;3.93;;;3.20;;
5880;SDS011;2966;52.598;10.928;2022-11-20T12:45:11;6.87;;;6.23;;
5880;SDS011;2966;52.598;10.928;2022-11-20T12:51:04;8.90;;;2.50;;
5880;SDS011;2966;52.598;10.928;2022-11-20T12:53:46;7.20;;;5.50;;
5880;SDS011;2966;52.598;10.928;2022-11-20T12:56:28;7.30;;;5.17;;
5880;SDS011;2966;52.598;10.928;2022-11-20T12:59:07;7.13;;;5.77;;
5880;SDS011;2966;52.598;10.928;2022-11-20T13:01:50;14.23;;;7.37;;
5880;SDS011;2966;52.598;10.928;2022-11-20T13:04:26;8.07;;;6.00;;
5880;SDS011;2966;52.598;10.928;2022-11-20T13:07:16;6.93;;;4.93;;
5880;SDS011;2966;52.598;10.928;2022-11-20T13:09:43;9.97;;;6.50;;
5880;SDS011;2966;52.598;10.928;2022-11-20T13:12:15;8.07;;;4.90;;
5880;SDS011;2966;52.598;10.928;2022-11-20T13:14:50;6.73;;;5.30;;
5880;SDS011;2966;52.598;10.928;2022-11-20T13:17:23;9.40;;;6.30;;
5880;SDS011;2966;52.598;10.928;2022-11-20T13:19:57;12.80;;;6.97;;
5880;SDS011;2966;52.598;10.928;2022-11-20T13:22:25;13.00;;;5.77;;
5880;SDS011;2966;52.598;10.928;2022-11-20T13:24:53;6.17;;;5.67;;
5880;SDS011;2966;52.598;10.928;2022-11-20T13:27:21;10.50;;;6.27;;
5880;SDS011;2966;52.598;10.928;2022-11-20T13:30:10;10.33;;;4.87;;
5880;SDS011;2966;52.598;10.928;2022-11-20T13:32:49;12.53;;;7.70;;
5880;SDS011;2966;52.598;10.928;2022-11-20T13:35:24;9.60;;;6.07;;
5880;SDS011;2966;52.598;10.928;2022-11-20T13:37:59;5.67;;;4.77;;
5880;SDS011;2966;52.598;10.928;2022-11-20T13:40:31;6.57;;;4.47;;
5880;SDS011;2966;52.598;10.928;2022-11-20T13:43:04;11.67;;;4.20;;
5880;SDS011;2966;52.598;10.928;2022-11-20T13:45:40;9.37;;;5.73;;
5880;SDS011;2966;52.598;10.928;2022-11-20T13:48:17;7.10;;;6.23;;
5880;SDS011;2966;52.598;10.928;2022-11-20T13:50:50;5.80;;;3.40;;
5880;SDS011;2966;52.598;10.928;2022-11-20T13:53:32;5.70;;;5.20;;
5880;SDS011;2966;52.598;10.928;2022-11-20T13:56:21;6.90;;;5.53;;
5880;SDS011;2966;52.598;10.928;2022-11-20T13:58:57;8.90;;;4.60;;
5880;SDS011;2966;52.598;10.928;2022-11-20T14:01:31;9.00;;;5.13;;
5880;SDS011;2966;52.598;10.928;2022-11-20T14:03:59;6.87;;;5.57;;
5880;SDS011;2966;52.598;10.928;2022-11-20T14:06:33;9.17;;;6.10;;
5880;SDS011;2966;52.598;10.928;2022-11-20T14:09:10;6.83;;;6.00;;
5880;SDS011;2966;52.598;10.928;2022-11-20T14:11:45;6.00;;;5.30;;
5880;SDS011;2966;52.598;10.928;2022-11-20T14:14:15;9.30;;;6.50;;
5880;SDS011;2966;52.598;10.928;2022-11-20T14:16:44;7.30;;;5.30;;
5880;SDS011;2966;52.598;10.928;2022-11-20T14:19:25;9.70;;;4.50;;
5880;SDS011;2966;52.598;10.928;2022-11-20T14:22:06;6.93;;;4.83;;
5880;SDS011;2966;52.598;10.928;2022-11-20T14:24:35;6.43;;;4.67;;
5880;SDS011;2966;52.598;10.928;2022-11-20T14:27:03;6.63;;;5.23;;
5880;SDS011;2966;52.598;10.928;2022-11-20T14:29:33;6.33;;;5.30;;
5880;SDS011;2966;52.598;10.928;2022-11-20T14:32:01;12.97;;;8.33;;
5880;SDS011;2966;52.598;10.928;2022-11-20T14:34:30;7.03;;;4.80;;
5880;SDS011;2966;52.598;10.928;2022-11-20T14:37:02;9.33;;;6.57;;
5880;SDS011;2966;52.598;10.928;2022-11-20T14:39:32;6.10;;;4.87;;
5880;SDS011;2966;52.598;10.928;2022-11-20T14:42:01;19.43;;;9.13;;
5880;SDS011;2966;52.598;10.928;2022-11-20T14:44:29;20.60;;;11.10;;
5880;SDS011;2966;52.598;10.928;2022-11-20T14:47:00;22.50;;;9.80;;
5880;SDS011;2966;52.598;10.928;2022-11-20T14:49:29;13.17;;;8.73;;
5880;SDS011;2966;52.598;10.928;2022-11-20T14:52:00;28.03;;;13.10;;
5880;SDS011;2966;52.598;10.928;2022-11-20T14:54:29;17.10;;;9.40;;
5880;SDS011;2966;52.598;10.928;2022-11-20T14:56:56;6.30;;;4.77;;
5880;SDS011;2966;52.598;10.928;2022-11-20T14:59:25;14.73;;;8.13;;
5880;SDS011;2966;52.598;10.928;2022-11-20T15:01:55;21.70;;;11.40;;
5880;SDS011;2966;52.598;10.928;2022-11-20T15:04:24;20.53;;;8.73;;
5880;SDS011;2966;52.598;10.928;2022-11-20T15:06:53;10.70;;;7.10;;
5880;SDS011;2966;52.598;10.928;2022-11-20T15:09:21;9.47;;;6.20;;
5880;SDS011;2966;52.598;10.928;2022-11-20T15:11:52;10.57;;;5.10;;
5880;SDS011;2966;52.598;10.928;2022-11-20T15:14:21;7.53;;;6.57;;
5880;SDS011;2966;52.598;10.928;2022-11-20T15:16:49;8.73;;;6.80;;